createdAt,value
2019-03-23T00:00:57.815Z,49.66
2019-03-23T00:03:25.809Z,48.45
2019-03-23T00:05:53.812Z,48.79
2019-03-23T00:08:21.807Z,49.87
2019-03-23T00:10:49.811Z,49.55
2019-03-23T00:13:17.804Z,49.76
2019-03-23T00:15:45.798Z,49.20
2019-03-23T00:18:14.050Z,49.51
2019-03-23T00:20:42.191Z,49.61
2019-03-23T00:23:10.189Z,50.00
2019-03-23T00:25:38.155Z,50.09
2019-03-23T00:28:06.147Z,50.34
2019-03-23T00:30:34.352Z,49.94
2019-03-23T00:33:02.387Z,49.62
2019-03-23T00:35:30.386Z,50.66
2019-03-23T00:37:58.493Z,49.67
2019-03-23T00:40:30.545Z,50.05
2019-03-23T00:43:00.986Z,49.73
2019-03-23T00:45:28.974Z,50.52
2019-03-23T00:47:56.983Z,50.03
2019-03-23T00:50:24.957Z,50.28
2019-03-23T00:52:53.002Z,49.57
2019-03-23T00:55:21.146Z,50.21
2019-03-23T00:57:49.125Z,50.75
2019-03-23T01:00:17.106Z,49.80
2019-03-23T01:02:45.121Z,50.51
2019-03-23T01:05:13.099Z,50.40
2019-03-23T01:07:41.072Z,49.95
2019-03-23T01:10:09.237Z,49.83
2019-03-23T01:12:37.211Z,50.39
2019-03-23T01:15:05.652Z,51.34
2019-03-23T01:17:33.766Z,50.10
2019-03-23T01:20:01.771Z,49.29
2019-03-23T01:22:32.984Z,49.96
2019-03-23T01:25:00.970Z,50.68
2019-03-23T01:27:28.938Z,50.99
2019-03-23T01:29:56.959Z,50.97
2019-03-23T01:32:25.154Z,51.37
2019-03-23T01:34:53.154Z,50.47
2019-03-23T01:37:21.195Z,50.16
2019-03-23T01:39:49.195Z,50.24
2019-03-23T01:42:17.540Z,50.30
2019-03-23T01:44:45.536Z,49.95
2019-03-23T01:47:13.520Z,50.60
2019-03-23T01:49:41.528Z,51.33
2019-03-23T01:52:09.542Z,50.37
2019-03-23T01:54:37.521Z,50.58
2019-03-23T01:57:05.518Z,50.99
2019-03-23T01:59:33.514Z,50.56
2019-03-23T02:02:01.535Z,50.31
2019-03-23T02:04:30.750Z,50.51
2019-03-23T02:06:58.796Z,49.85
2019-03-23T02:09:26.787Z,50.60
2019-03-23T02:11:55.134Z,50.12
2019-03-23T02:14:23.118Z,51.05
2019-03-23T02:16:51.132Z,51.11
2019-03-23T02:19:19.240Z,51.15
2019-03-23T02:21:47.226Z,51.33
2019-03-23T02:24:15.284Z,51.33
2019-03-23T02:26:43.293Z,51.50
2019-03-23T02:29:11.285Z,51.74
2019-03-23T02:31:39.453Z,50.96
2019-03-23T02:34:07.759Z,51.19
2019-03-23T02:36:35.739Z,50.99
2019-03-23T02:39:04.884Z,50.96
2019-03-23T02:41:32.955Z,51.99
2019-03-23T02:44:05.075Z,51.14
2019-03-23T02:46:30.780Z,50.88
2019-03-23T02:48:58.760Z,51.25
2019-03-23T02:51:26.825Z,50.34
2019-03-23T02:53:54.838Z,50.87
2019-03-23T02:56:22.840Z,51.95
2019-03-23T02:58:50.824Z,51.34
2019-03-23T03:01:18.818Z,49.58
2019-03-23T03:03:46.806Z,49.40
2019-03-23T03:06:14.834Z,50.15
2019-03-23T03:08:42.924Z,49.35
2019-03-23T03:11:10.900Z,50.76
2019-03-23T03:13:39.110Z,52.05
2019-03-23T03:16:07.110Z,50.75
2019-03-23T03:18:35.078Z,51.39
2019-03-23T03:21:03.149Z,50.54
2019-03-23T03:23:31.124Z,50.96
2019-03-23T03:32:18.917Z,50.78
2019-03-23T03:34:46.933Z,50.80
2019-03-23T03:37:14.916Z,51.79
2019-03-23T03:39:42.956Z,51.39
2019-03-23T03:42:10.985Z,51.27
2019-03-23T03:44:39.036Z,52.83
2019-03-23T03:47:07.036Z,50.01
2019-03-23T03:49:35.030Z,52.03
2019-03-23T03:52:03.017Z,51.19
2019-03-23T03:54:31.023Z,50.79
2019-03-23T03:56:59.013Z,51.66
2019-03-23T03:59:26.999Z,51.07
2019-03-23T04:01:55.012Z,50.98
2019-03-23T04:04:31.859Z,53.50
2019-03-23T04:06:59.870Z,51.75
2019-03-23T04:09:28.096Z,51.03
2019-03-23T04:11:56.083Z,51.33
2019-03-23T04:14:24.102Z,51.60
2019-03-23T04:16:52.107Z,51.91
2019-03-23T04:19:20.129Z,52.08
2019-03-23T04:21:48.178Z,50.97
2019-03-23T04:24:16.155Z,51.91
2019-03-23T04:26:44.166Z,51.20
2019-03-23T04:29:12.227Z,51.59
2019-03-23T04:31:40.302Z,51.72
2019-03-23T04:34:08.340Z,50.68
2019-03-23T04:36:36.399Z,49.96
2019-03-23T04:39:05.521Z,50.44
2019-03-23T04:41:39.127Z,50.70
2019-03-23T04:44:07.154Z,50.43
2019-03-23T04:46:35.147Z,50.39
2019-03-23T04:49:03.156Z,51.41
2019-03-23T04:51:31.193Z,50.58
2019-03-23T04:53:59.345Z,49.99
2019-03-23T04:56:27.382Z,51.78
2019-03-23T04:58:55.702Z,50.80
2019-03-23T05:01:23.726Z,50.80
2019-03-23T05:03:51.815Z,51.57
2019-03-23T05:06:19.839Z,49.97
2019-03-23T05:08:47.882Z,51.31
2019-03-23T05:11:15.861Z,50.51
2019-03-23T05:13:43.863Z,52.03
2019-03-23T05:16:11.915Z,51.90
2019-03-23T05:18:42.007Z,50.81
2019-03-23T05:21:17.568Z,52.02
2019-03-23T05:23:45.904Z,51.85
2019-03-23T05:26:14.215Z,51.25
2019-03-23T05:28:43.202Z,49.74
2019-03-23T05:31:11.183Z,51.50
2019-03-23T05:33:39.254Z,50.97
2019-03-23T05:36:07.254Z,51.76
2019-03-23T05:38:44.027Z,52.46
2019-03-23T05:41:05.002Z,53.36
2019-03-23T05:43:33.527Z,49.38
2019-03-23T05:46:01.547Z,50.80
2019-03-23T05:48:29.577Z,50.99
2019-03-23T05:50:57.571Z,50.75
2019-03-23T05:53:25.597Z,51.15
2019-03-23T05:55:53.626Z,51.11
2019-03-23T05:58:29.309Z,51.97
2019-03-23T06:00:57.587Z,52.13
2019-03-23T06:03:25.774Z,53.60
2019-03-23T06:05:53.750Z,52.11
2019-03-23T06:08:21.732Z,51.86
2019-03-23T06:10:49.729Z,51.75
2019-03-23T06:13:18.002Z,51.33
2019-03-23T06:15:46.027Z,52.46
2019-03-23T06:18:14.510Z,50.53
2019-03-23T06:20:42.475Z,51.77
2019-03-23T06:23:10.460Z,52.64
2019-03-23T06:25:38.478Z,51.66
2019-03-23T06:28:06.500Z,51.23
2019-03-23T06:30:34.600Z,51.27
2019-03-23T06:33:02.590Z,51.62
2019-03-23T06:35:31.855Z,50.77
2019-03-23T06:37:59.919Z,52.07
2019-03-23T06:40:27.974Z,50.92
2019-03-23T06:45:25.169Z,50.83
2019-03-23T06:47:53.305Z,51.24
2019-03-23T06:50:21.369Z,51.53
2019-03-23T06:52:49.449Z,50.31
2019-03-23T06:55:17.494Z,51.05
2019-03-23T06:57:45.606Z,50.40
2019-03-23T07:00:13.657Z,49.16
2019-03-23T07:02:41.754Z,51.21
2019-03-23T07:05:09.916Z,50.48
2019-03-23T07:07:37.983Z,50.65
2019-03-23T07:10:07.216Z,51.15
2019-03-23T07:12:35.400Z,50.64
2019-03-23T07:15:03.605Z,51.19
2019-03-23T07:17:31.728Z,51.11
2019-03-23T07:19:59.790Z,50.60
2019-03-23T07:22:27.976Z,50.10
2019-03-23T07:24:56.146Z,51.08
2019-03-23T07:27:24.353Z,50.02
2019-03-23T07:29:53.371Z,51.30
2019-03-23T07:32:21.527Z,49.41
2019-03-23T07:34:49.688Z,49.94
2019-03-23T07:37:17.727Z,50.22
2019-03-23T07:39:45.841Z,50.37
2019-03-23T07:42:13.885Z,51.48
2019-03-23T07:44:42.003Z,50.53
2019-03-23T07:47:10.163Z,51.83
2019-03-23T07:49:38.678Z,50.46
2019-03-23T07:52:06.764Z,50.11
2019-03-23T07:54:35.103Z,50.51
2019-03-23T07:57:03.404Z,50.23
2019-03-23T08:02:41.622Z,50.71
2019-03-23T08:05:09.764Z,51.16
2019-03-23T08:07:38.010Z,50.33
2019-03-23T08:10:06.323Z,51.52
2019-03-23T08:12:35.540Z,50.70
2019-03-23T08:15:03.789Z,51.22
2019-03-23T08:17:32.060Z,51.24
2019-03-23T08:20:00.409Z,51.15
2019-03-23T08:22:28.614Z,51.09
2019-03-23T08:24:56.784Z,50.46
2019-03-23T08:27:25.982Z,51.87
2019-03-23T08:29:54.135Z,51.54
2019-03-23T08:32:23.674Z,51.43
2019-03-23T08:34:51.864Z,52.06
2019-03-23T08:37:20.114Z,51.90
2019-03-23T08:39:48.855Z,51.81
2019-03-23T08:42:16.994Z,52.40
2019-03-23T08:44:45.433Z,51.89
2019-03-23T08:47:14.792Z,51.94
2019-03-23T08:49:43.339Z,50.92
2019-03-23T08:52:11.589Z,51.89
2019-03-23T08:54:39.917Z,51.44
2019-03-23T08:57:08.017Z,51.16
2019-03-23T08:59:36.612Z,51.29
2019-03-23T09:02:04.753Z,51.11
2019-03-23T09:04:32.926Z,50.29
2019-03-23T09:07:01.338Z,50.78
2019-03-23T09:09:29.439Z,50.71
2019-03-23T09:11:57.578Z,50.62
2019-03-23T09:14:25.672Z,50.70
2019-03-23T09:23:27.050Z,50.37
2019-03-23T09:26:10.606Z,49.43
2019-03-23T09:29:08.887Z,50.43
2019-03-23T09:31:36.976Z,50.36
2019-03-23T09:34:05.062Z,50.37
2019-03-23T09:36:33.245Z,50.54
2019-03-23T09:39:01.557Z,50.33
2019-03-23T09:41:29.918Z,50.39
2019-03-23T09:43:58.062Z,50.88
2019-03-23T09:46:26.226Z,50.57
2019-03-23T09:48:54.533Z,50.32
2019-03-23T09:51:22.772Z,50.92
2019-03-23T09:53:51.138Z,51.47
2019-03-23T09:56:19.400Z,51.14
2019-03-23T09:58:48.208Z,51.42
2019-03-23T10:01:16.388Z,50.15
2019-03-23T10:03:44.668Z,51.28
2019-03-23T10:06:12.800Z,51.12
2019-03-23T10:08:40.993Z,51.07
2019-03-23T10:11:09.155Z,51.11
2019-03-23T10:13:37.345Z,51.51
2019-03-23T10:16:16.900Z,51.49
2019-03-23T10:18:45.016Z,50.12
2019-03-23T10:21:13.112Z,50.28
2019-03-23T10:23:44.363Z,49.88
2019-03-23T10:26:12.922Z,50.05
2019-03-23T10:28:41.321Z,51.13
2019-03-23T10:31:10.538Z,51.15
2019-03-23T10:33:39.922Z,51.57
2019-03-23T10:36:12.816Z,51.10
2019-03-23T10:38:43.316Z,51.45
2019-03-23T10:44:21.683Z,50.27
2019-03-23T10:46:49.781Z,51.24
2019-03-23T10:49:17.913Z,50.98
2019-03-23T10:51:46.145Z,50.89
2019-03-23T10:54:14.301Z,50.77
2019-03-23T10:56:42.488Z,51.54
2019-03-23T10:59:10.678Z,51.58
2019-03-23T11:01:38.953Z,51.68
2019-03-23T11:04:07.526Z,51.44
2019-03-23T11:06:35.918Z,52.26
2019-03-23T11:12:14.060Z,52.50
2019-03-23T11:14:42.310Z,52.46
2019-03-23T11:17:10.367Z,52.45
2019-03-23T11:19:38.479Z,51.55
2019-03-23T11:22:06.687Z,51.20
2019-03-23T11:24:34.790Z,52.90
2019-03-23T11:27:02.978Z,52.05
2019-03-23T11:29:31.070Z,52.57
2019-03-23T11:31:59.263Z,51.82
2019-03-23T11:34:27.359Z,53.31
2019-03-23T11:36:55.421Z,52.50
2019-03-23T11:39:23.565Z,50.94
2019-03-23T11:41:52.949Z,51.43
2019-03-23T11:44:22.018Z,52.25
2019-03-23T11:46:52.017Z,51.16
2019-03-23T11:49:20.412Z,52.19
2019-03-23T11:54:57.823Z,52.23
2019-03-23T11:57:25.808Z,53.16
2019-03-23T11:59:54.298Z,50.39
2019-03-23T12:02:22.316Z,52.75
2019-03-23T12:04:50.304Z,52.34
2019-03-23T12:07:18.295Z,50.74
2019-03-23T12:09:46.575Z,51.23
2019-03-23T12:12:14.593Z,51.43
2019-03-23T12:14:42.684Z,50.32
2019-03-23T12:17:10.676Z,51.42
2019-03-23T12:19:38.716Z,52.52
2019-03-23T12:22:08.974Z,51.46
2019-03-23T12:24:36.954Z,50.50
2019-03-23T12:27:04.982Z,51.97
2019-03-23T12:29:32.964Z,50.67
2019-03-23T12:32:00.958Z,52.05
2019-03-23T12:34:28.953Z,51.76
2019-03-23T12:36:56.962Z,51.79
2019-03-23T12:39:24.942Z,50.82
2019-03-23T12:41:52.932Z,50.49
2019-03-23T12:44:20.950Z,51.90
2019-03-23T12:46:48.988Z,50.46
2019-03-23T12:49:17.041Z,52.38
2019-03-23T12:51:45.164Z,51.96
2019-03-23T12:54:13.208Z,50.92
2019-03-23T12:56:41.206Z,52.21
2019-03-23T12:59:11.404Z,51.69
2019-03-23T13:01:43.902Z,52.07
2019-03-23T13:04:12.073Z,51.63
2019-03-23T13:06:40.361Z,52.59
2019-03-23T13:09:08.558Z,52.50
2019-03-23T13:11:36.637Z,49.88
2019-03-23T13:14:04.908Z,50.63
2019-03-23T13:16:33.292Z,50.48
2019-03-23T13:19:01.447Z,52.10
2019-03-23T13:21:29.805Z,52.02
2019-03-23T13:23:58.243Z,52.26
2019-03-23T13:26:26.347Z,51.83
2019-03-23T13:28:54.489Z,51.90
2019-03-23T13:31:22.636Z,51.55
2019-03-23T13:33:50.808Z,52.21
2019-03-23T13:36:18.943Z,51.97
2019-03-23T13:38:47.115Z,51.49
2019-03-23T13:41:15.254Z,52.49
2019-03-23T13:43:43.307Z,50.88
2019-03-23T13:46:11.418Z,52.24
2019-03-23T13:48:39.790Z,51.85
2019-03-23T13:51:07.862Z,51.98
2019-03-23T13:53:37.679Z,51.96
2019-03-23T13:56:05.733Z,50.24
2019-03-23T13:58:33.891Z,51.92
2019-03-23T14:01:02.025Z,52.88
2019-03-23T14:03:30.132Z,51.77
2019-03-23T14:05:58.184Z,50.64
2019-03-23T14:08:26.367Z,50.63
2019-03-23T14:10:54.520Z,52.15
2019-03-23T14:13:22.647Z,50.04
2019-03-23T14:15:50.824Z,49.68
2019-03-23T14:18:19.101Z,48.57
2019-03-23T14:20:47.264Z,52.10
2019-03-23T14:23:15.417Z,50.35
2019-03-23T14:25:43.558Z,49.21
2019-03-23T14:28:11.740Z,50.21
2019-03-23T14:30:39.896Z,49.54
2019-03-23T14:33:08.064Z,51.40
2019-03-23T14:35:36.303Z,49.28
2019-03-23T14:38:04.335Z,50.66
2019-03-23T14:40:32.397Z,47.85
2019-03-23T14:43:00.546Z,49.05
2019-03-23T14:45:28.693Z,48.78
2019-03-23T14:47:56.776Z,51.08
2019-03-23T14:50:24.809Z,51.09
2019-03-23T14:52:52.865Z,50.75
2019-03-23T14:55:21.064Z,50.25
2019-03-23T14:57:49.530Z,50.63
2019-03-23T15:00:23.348Z,50.37
2019-03-23T15:02:52.612Z,50.39
2019-03-23T15:05:21.557Z,50.28
2019-03-23T15:07:49.676Z,49.38
2019-03-23T15:10:17.816Z,49.60
2019-03-23T15:12:45.986Z,49.33
2019-03-23T15:15:14.186Z,47.46
2019-03-23T15:17:48.678Z,48.77
2019-03-23T15:20:12.251Z,48.35
2019-03-23T15:22:40.328Z,48.94
2019-03-23T15:25:08.685Z,47.83
2019-03-23T15:27:36.819Z,48.07
2019-03-23T15:30:05.263Z,46.93
2019-03-23T15:32:33.574Z,47.51
2019-03-23T15:35:01.680Z,47.73
2019-03-23T15:37:29.770Z,46.89
2019-03-23T15:39:57.990Z,47.41
2019-03-23T15:42:26.302Z,46.24
2019-03-23T15:44:54.482Z,46.57
2019-03-23T15:47:22.701Z,49.11
2019-03-23T15:49:50.775Z,48.31
2019-03-23T15:52:18.816Z,47.42
2019-03-23T15:54:49.601Z,48.14
2019-03-23T15:57:17.680Z,49.31
2019-03-23T15:59:45.783Z,48.80
2019-03-23T16:02:13.984Z,48.53
2019-03-23T16:04:42.109Z,48.83
2019-03-23T16:07:10.233Z,48.99
2019-03-23T16:09:38.546Z,47.84
2019-03-23T16:12:06.690Z,48.66
2019-03-23T16:14:36.048Z,47.70
2019-03-23T16:17:04.103Z,46.63
2019-03-23T16:19:33.303Z,48.36
2019-03-23T16:22:01.394Z,47.44
2019-03-23T16:24:29.515Z,48.79
2019-03-23T16:26:57.802Z,47.91
2019-03-23T16:29:25.858Z,48.51
2019-03-23T16:31:53.929Z,48.52
2019-03-23T16:34:27.910Z,49.04
2019-03-23T16:37:08.377Z,48.57
2019-03-23T16:39:37.034Z,47.36
2019-03-23T16:42:05.283Z,47.83
2019-03-23T16:44:38.888Z,48.58
2019-03-23T16:47:07.054Z,48.15
2019-03-23T16:49:35.256Z,48.18
2019-03-23T16:52:03.502Z,49.18
2019-03-23T16:54:32.137Z,49.44
2019-03-23T16:57:01.780Z,47.66
2019-03-23T16:59:29.756Z,48.80
2019-03-23T17:01:57.790Z,49.28
2019-03-23T17:04:25.942Z,49.19
2019-03-23T17:06:53.982Z,48.67
2019-03-23T17:09:21.961Z,50.14
2019-03-23T17:11:49.947Z,49.71
2019-03-23T17:14:17.995Z,49.36
2019-03-23T17:16:49.106Z,48.37
2019-03-23T17:19:22.359Z,47.36
2019-03-23T17:21:47.698Z,48.82
2019-03-23T17:24:16.174Z,48.02
2019-03-23T17:26:44.187Z,49.68
2019-03-23T17:29:13.190Z,48.50
2019-03-23T17:31:41.170Z,47.82
2019-03-23T17:34:09.258Z,46.87
2019-03-23T17:36:37.250Z,46.67
2019-03-23T17:39:06.018Z,47.24
2019-03-23T17:41:33.998Z,46.86
2019-03-23T17:44:02.000Z,47.28
2019-03-23T17:46:30.011Z,47.62
2019-03-23T17:48:58.023Z,47.38
2019-03-23T17:51:26.007Z,47.13
2019-03-23T17:53:58.587Z,46.77
2019-03-23T17:56:32.288Z,47.06
2019-03-23T17:59:00.739Z,48.49
2019-03-23T18:01:29.456Z,45.78
2019-03-23T18:03:57.575Z,44.87
2019-03-23T18:06:25.754Z,47.35
2019-03-23T18:08:53.778Z,47.35
2019-03-23T18:11:21.842Z,48.09
2019-03-23T18:13:50.880Z,46.13
2019-03-23T18:16:20.034Z,47.18
2019-03-23T18:18:48.184Z,46.92
2019-03-23T18:21:16.179Z,47.30
2019-03-23T18:23:44.562Z,48.53
2019-03-23T18:26:12.588Z,46.86
2019-03-23T18:28:40.638Z,47.45
2019-03-23T18:31:08.654Z,47.29
2019-03-23T18:33:39.215Z,47.32
2019-03-23T18:36:07.515Z,46.68
2019-03-23T18:38:35.556Z,47.67
2019-03-23T18:41:03.558Z,46.90
2019-03-23T18:43:31.608Z,49.15
2019-03-23T18:45:59.636Z,47.94
2019-03-23T18:48:27.618Z,47.31
2019-03-23T18:50:55.648Z,47.45
2019-03-23T18:53:24.215Z,47.10
2019-03-23T18:55:52.285Z,47.20
2019-03-23T18:58:20.275Z,46.99
2019-03-23T19:00:48.306Z,47.62
2019-03-23T19:03:16.308Z,48.02
2019-03-23T19:05:44.599Z,49.55
2019-03-23T19:08:12.944Z,46.78
2019-03-23T19:10:40.949Z,47.06
2019-03-23T19:13:13.299Z,46.59
2019-03-23T19:15:43.734Z,46.56
2019-03-23T19:18:11.756Z,47.29
2019-03-23T19:20:39.732Z,47.52
2019-03-23T19:23:07.707Z,47.39
2019-03-23T19:25:35.709Z,47.24
2019-03-23T19:28:03.703Z,48.36
2019-03-23T19:30:31.750Z,48.50
2019-03-23T19:32:59.824Z,48.54
2019-03-23T19:35:27.795Z,49.09
2019-03-23T19:37:55.805Z,48.76
2019-03-23T19:40:23.814Z,48.51
2019-03-23T19:42:51.903Z,50.11
2019-03-23T19:45:19.890Z,49.21
2019-03-23T19:47:47.931Z,48.93
2019-03-23T19:50:17.152Z,48.62
2019-03-23T19:52:45.228Z,50.27
2019-03-23T19:55:13.226Z,51.29
2019-03-23T19:57:41.290Z,49.60
2019-03-23T20:00:09.399Z,48.96
2019-03-23T20:02:37.403Z,49.93
2019-03-23T20:05:05.551Z,48.34
2019-03-23T20:07:33.579Z,49.25
2019-03-23T20:10:01.688Z,49.73
2019-03-23T20:12:29.664Z,47.22
2019-03-23T20:14:57.670Z,49.62
2019-03-23T20:17:25.742Z,49.90
2019-03-23T20:19:53.778Z,50.61
2019-03-23T20:22:21.779Z,48.02
2019-03-23T20:24:49.798Z,49.89
2019-03-23T20:27:17.810Z,49.61
2019-03-23T20:29:51.808Z,49.05
2019-03-23T20:32:20.251Z,49.29
2019-03-23T20:34:48.236Z,49.41
2019-03-23T20:37:16.219Z,49.80
2019-03-23T20:39:44.254Z,51.30
2019-03-23T20:42:12.282Z,49.66
2019-03-23T20:44:40.362Z,47.61
2019-03-23T20:47:08.494Z,49.43
2019-03-23T20:49:36.638Z,50.24
2019-03-23T20:52:04.686Z,49.89
2019-03-23T20:54:32.667Z,52.76
2019-03-23T20:57:00.682Z,49.66
2019-03-23T20:59:28.692Z,47.56
2019-03-23T21:01:56.734Z,52.66
2019-03-23T21:04:24.769Z,51.53
2019-03-23T21:06:52.792Z,48.57
2019-03-23T21:09:20.811Z,52.38
2019-03-23T21:11:54.182Z,51.72
2019-03-23T21:14:22.234Z,51.65
2019-03-23T21:16:50.235Z,49.99
2019-03-23T21:19:18.214Z,50.93
2019-03-23T21:21:46.252Z,52.47
2019-03-23T21:24:14.222Z,49.20
2019-03-23T21:26:42.258Z,50.49
2019-03-23T21:29:10.239Z,48.80
2019-03-23T21:31:38.227Z,48.89
2019-03-23T21:34:06.210Z,51.83
2019-03-23T21:36:34.246Z,51.21
2019-03-23T21:39:02.278Z,52.72
2019-03-23T21:41:30.291Z,50.07
2019-03-23T21:43:58.305Z,51.05
2019-03-23T21:46:26.363Z,50.30
2019-03-23T21:48:54.358Z,50.03
2019-03-23T21:51:24.147Z,51.15
2019-03-23T21:53:53.203Z,52.21
2019-03-23T21:56:21.257Z,50.56
2019-03-23T21:58:49.350Z,51.57
2019-03-23T22:01:17.343Z,50.59
2019-03-23T22:03:45.355Z,50.56
2019-03-23T22:06:13.401Z,50.79
2019-03-23T22:08:41.620Z,51.05
2019-03-23T22:11:09.679Z,50.65
2019-03-23T22:13:37.699Z,50.98
2019-03-23T22:16:05.718Z,50.96
2019-03-23T22:18:33.734Z,51.22
2019-03-23T22:21:01.755Z,49.87
2019-03-23T22:23:29.806Z,51.21
2019-03-23T22:25:57.814Z,50.52
2019-03-23T22:28:25.843Z,51.89
2019-03-23T22:30:53.917Z,49.91
2019-03-23T22:33:28.060Z,50.32
2019-03-23T22:35:56.211Z,50.39
2019-03-23T22:38:24.197Z,49.95
2019-03-23T22:40:52.179Z,49.75
2019-03-23T22:43:20.163Z,50.93
2019-03-23T22:45:48.201Z,51.36
2019-03-23T22:48:16.214Z,51.47
2019-03-23T22:50:44.318Z,50.95
2019-03-23T22:53:12.345Z,51.29
2019-03-23T22:55:40.347Z,50.68
2019-03-23T22:58:08.378Z,52.58
2019-03-23T23:00:54.545Z,50.90
2019-03-23T23:03:41.036Z,51.71
2019-03-23T23:06:19.551Z,51.08
2019-03-23T23:08:46.802Z,50.51
2019-03-23T23:11:14.798Z,50.48
2019-03-23T23:13:42.799Z,52.11
2019-03-23T23:16:10.772Z,51.14
2019-03-23T23:18:38.895Z,52.83
2019-03-23T23:21:06.894Z,50.55
2019-03-23T23:23:35.445Z,50.27
2019-03-23T23:26:03.622Z,50.53
2019-03-23T23:28:31.688Z,51.31
2019-03-23T23:30:59.790Z,50.08
2019-03-23T23:33:31.552Z,52.54
2019-03-23T23:35:59.546Z,50.55
2019-03-23T23:38:27.545Z,50.84
2019-03-23T23:40:55.539Z,50.78
2019-03-23T23:43:23.546Z,51.94
2019-03-23T23:45:51.595Z,51.17
2019-03-23T23:48:19.870Z,50.39
2019-03-23T23:50:47.854Z,50.47
2019-03-23T23:53:15.923Z,49.58
2019-03-23T23:55:43.918Z,49.90
2019-03-23T23:58:11.918Z,50.30
